sensor_id;sensor_type;location;lat;lon;timestamp;P1;durP1;ratioP1;P2;durP2;ratioP2
17714;SDS011;8977;50.902;4.314;2023-04-24T00:01:05;17.00;;;10.73;;
17714;SDS011;8977;50.902;4.314;2023-04-24T00:03:34;15.57;;;11.10;;
17714;SDS011;8977;50.902;4.314;2023-04-24T00:06:01;18.87;;;11.90;;
17714;SDS011;8977;50.902;4.314;2023-04-24T00:08:28;17.77;;;11.13;;
17714;SDS011;8977;50.902;4.314;2023-04-24T00:10:55;16.10;;;10.73;;
17714;SDS011;8977;50.902;4.314;2023-04-24T00:13:22;14.17;;;10.87;;
17714;SDS011;8977;50.902;4.314;2023-04-24T00:15:49;13.50;;;10.83;;
17714;SDS011;8977;50.902;4.314;2023-04-24T00:18:16;15.37;;;11.40;;
17714;SDS011;8977;50.902;4.314;2023-04-24T00:20:45;12.17;;;10.00;;
17714;SDS011;8977;50.902;4.314;2023-04-24T00:23:12;13.37;;;10.50;;
17714;SDS011;8977;50.902;4.314;2023-04-24T00:25:39;13.63;;;10.77;;
17714;SDS011;8977;50.902;4.314;2023-04-24T00:28:06;16.40;;;11.70;;
17714;SDS011;8977;50.902;4.314;2023-04-24T00:30:33;18.97;;;11.30;;
17714;SDS011;8977;50.902;4.314;2023-04-24T00:33:01;11.83;;;10.47;;
17714;SDS011;8977;50.902;4.314;2023-04-24T00:35:28;13.33;;;10.63;;
17714;SDS011;8977;50.902;4.314;2023-04-24T00:37:56;14.13;;;10.90;;
17714;SDS011;8977;50.902;4.314;2023-04-24T00:40:23;16.30;;;10.57;;
17714;SDS011;8977;50.902;4.314;2023-04-24T00:42:50;18.83;;;10.30;;
17714;SDS011;8977;50.902;4.314;2023-04-24T00:45:18;16.43;;;10.87;;
17714;SDS011;8977;50.902;4.314;2023-04-24T00:47:45;14.40;;;10.70;;
17714;SDS011;8977;50.902;4.314;2023-04-24T00:50:14;19.20;;;10.37;;
17714;SDS011;8977;50.902;4.314;2023-04-24T00:52:42;11.03;;;9.77;;
17714;SDS011;8977;50.902;4.314;2023-04-24T00:55:10;17.90;;;11.47;;
17714;SDS011;8977;50.902;4.314;2023-04-24T00:57:37;19.53;;;10.70;;
17714;SDS011;8977;50.902;4.314;2023-04-24T01:00:05;21.73;;;11.07;;
17714;SDS011;8977;50.902;4.314;2023-04-24T01:02:37;12.37;;;10.10;;
17714;SDS011;8977;50.902;4.314;2023-04-24T01:05:09;17.17;;;10.67;;
17714;SDS011;8977;50.902;4.314;2023-04-24T01:07:36;17.57;;;10.40;;
17714;SDS011;8977;50.902;4.314;2023-04-24T01:10:05;15.23;;;10.37;;
17714;SDS011;8977;50.902;4.314;2023-04-24T01:12:34;13.37;;;10.17;;
17714;SDS011;8977;50.902;4.314;2023-04-24T01:15:01;16.30;;;10.70;;
17714;SDS011;8977;50.902;4.314;2023-04-24T01:17:30;17.93;;;10.30;;
17714;SDS011;8977;50.902;4.314;2023-04-24T01:19:57;15.43;;;10.20;;
17714;SDS011;8977;50.902;4.314;2023-04-24T01:22:26;16.33;;;10.37;;
17714;SDS011;8977;50.902;4.314;2023-04-24T01:24:53;16.43;;;9.73;;
17714;SDS011;8977;50.902;4.314;2023-04-24T01:27:20;14.83;;;10.70;;
17714;SDS011;8977;50.902;4.314;2023-04-24T01:29:47;12.13;;;10.00;;
17714;SDS011;8977;50.902;4.314;2023-04-24T01:32:16;14.30;;;10.30;;
17714;SDS011;8977;50.902;4.314;2023-04-24T01:34:45;12.70;;;9.73;;
17714;SDS011;8977;50.902;4.314;2023-04-24T01:37:12;15.50;;;10.23;;
17714;SDS011;8977;50.902;4.314;2023-04-24T01:39:40;13.37;;;9.87;;
17714;SDS011;8977;50.902;4.314;2023-04-24T01:42:07;12.60;;;9.33;;
17714;SDS011;8977;50.902;4.314;2023-04-24T01:44:34;13.27;;;9.30;;
17714;SDS011;8977;50.902;4.314;2023-04-24T01:47:01;10.97;;;8.53;;
17714;SDS011;8977;50.902;4.314;2023-04-24T01:49:28;11.07;;;8.17;;
17714;SDS011;8977;50.902;4.314;2023-04-24T01:51:56;12.43;;;8.53;;
17714;SDS011;8977;50.902;4.314;2023-04-24T01:54:22;10.33;;;7.43;;
17714;SDS011;8977;50.902;4.314;2023-04-24T01:56:51;10.03;;;7.90;;
17714;SDS011;8977;50.902;4.314;2023-04-24T01:59:18;9.50;;;7.00;;
17714;SDS011;8977;50.902;4.314;2023-04-24T02:01:47;9.37;;;7.23;;
17714;SDS011;8977;50.902;4.314;2023-04-24T02:04:14;9.17;;;7.00;;
17714;SDS011;8977;50.902;4.314;2023-04-24T02:06:41;8.03;;;6.77;;
17714;SDS011;8977;50.902;4.314;2023-04-24T02:09:08;9.73;;;7.80;;
17714;SDS011;8977;50.902;4.314;2023-04-24T02:11:36;11.90;;;7.80;;
17714;SDS011;8977;50.902;4.314;2023-04-24T02:14:04;9.73;;;7.67;;
17714;SDS011;8977;50.902;4.314;2023-04-24T02:16:31;9.57;;;8.23;;
17714;SDS011;8977;50.902;4.314;2023-04-24T02:18:58;8.97;;;7.93;;
17714;SDS011;8977;50.902;4.314;2023-04-24T02:21:25;12.03;;;7.60;;
17714;SDS011;8977;50.902;4.314;2023-04-24T02:23:53;11.97;;;7.87;;
17714;SDS011;8977;50.902;4.314;2023-04-24T02:26:20;9.50;;;7.80;;
17714;SDS011;8977;50.902;4.314;2023-04-24T02:28:47;10.10;;;6.87;;
17714;SDS011;8977;50.902;4.314;2023-04-24T02:31:16;10.30;;;7.40;;
17714;SDS011;8977;50.902;4.314;2023-04-24T02:33:42;7.50;;;6.70;;
17714;SDS011;8977;50.902;4.314;2023-04-24T02:36:09;8.70;;;6.90;;
17714;SDS011;8977;50.902;4.314;2023-04-24T02:38:36;10.87;;;7.13;;
17714;SDS011;8977;50.902;4.314;2023-04-24T02:41:03;9.63;;;7.60;;
17714;SDS011;8977;50.902;4.314;2023-04-24T02:43:31;9.50;;;8.07;;
17714;SDS011;8977;50.902;4.314;2023-04-24T02:45:58;11.37;;;8.10;;
17714;SDS011;8977;50.902;4.314;2023-04-24T02:48:27;9.27;;;7.33;;
17714;SDS011;8977;50.902;4.314;2023-04-24T02:50:54;11.23;;;7.87;;
17714;SDS011;8977;50.902;4.314;2023-04-24T02:53:22;8.77;;;7.43;;
17714;SDS011;8977;50.902;4.314;2023-04-24T02:55:49;11.63;;;7.60;;
17714;SDS011;8977;50.902;4.314;2023-04-24T02:58:16;9.80;;;7.97;;
17714;SDS011;8977;50.902;4.314;2023-04-24T03:00:44;11.07;;;8.63;;
17714;SDS011;8977;50.902;4.314;2023-04-24T03:03:11;10.03;;;7.97;;
17714;SDS011;8977;50.902;4.314;2023-04-24T03:05:40;12.10;;;8.10;;
17714;SDS011;8977;50.902;4.314;2023-04-24T03:08:07;11.30;;;7.80;;
17714;SDS011;8977;50.902;4.314;2023-04-24T03:10:34;9.27;;;7.77;;
17714;SDS011;8977;50.902;4.314;2023-04-24T03:13:01;11.17;;;7.57;;
17714;SDS011;8977;50.902;4.314;2023-04-24T03:15:28;8.17;;;7.30;;
17714;SDS011;8977;50.902;4.314;2023-04-24T03:17:55;9.87;;;7.10;;
17714;SDS011;8977;50.902;4.314;2023-04-24T03:20:22;9.33;;;6.93;;
17714;SDS011;8977;50.902;4.314;2023-04-24T03:22:50;10.20;;;7.30;;
17714;SDS011;8977;50.902;4.314;2023-04-24T03:25:17;8.57;;;6.40;;
17714;SDS011;8977;50.902;4.314;2023-04-24T03:27:45;8.50;;;7.20;;
17714;SDS011;8977;50.902;4.314;2023-04-24T03:30:12;9.47;;;6.53;;
17714;SDS011;8977;50.902;4.314;2023-04-24T03:32:39;7.87;;;6.50;;
17714;SDS011;8977;50.902;4.314;2023-04-24T03:35:07;7.03;;;5.63;;
17714;SDS011;8977;50.902;4.314;2023-04-24T03:37:35;6.70;;;5.87;;
17714;SDS011;8977;50.902;4.314;2023-04-24T03:40:04;5.90;;;5.10;;
17714;SDS011;8977;50.902;4.314;2023-04-24T03:42:32;6.20;;;5.60;;
17714;SDS011;8977;50.902;4.314;2023-04-24T03:44:59;5.13;;;4.63;;
17714;SDS011;8977;50.902;4.314;2023-04-24T03:47:26;5.73;;;5.13;;
17714;SDS011;8977;50.902;4.314;2023-04-24T03:49:53;5.17;;;4.63;;
17714;SDS011;8977;50.902;4.314;2023-04-24T03:52:20;5.43;;;4.90;;
17714;SDS011;8977;50.902;4.314;2023-04-24T03:54:47;5.57;;;4.90;;
17714;SDS011;8977;50.902;4.314;2023-04-24T03:57:16;6.37;;;4.30;;
17714;SDS011;8977;50.902;4.314;2023-04-24T03:59:43;6.07;;;4.50;;
17714;SDS011;8977;50.902;4.314;2023-04-24T04:02:10;5.00;;;4.50;;
17714;SDS011;8977;50.902;4.314;2023-04-24T04:04:37;4.57;;;4.10;;
17714;SDS011;8977;50.902;4.314;2023-04-24T04:07:04;5.70;;;4.33;;
17714;SDS011;8977;50.902;4.314;2023-04-24T04:09:31;4.87;;;3.93;;
17714;SDS011;8977;50.902;4.314;2023-04-24T04:11:59;4.97;;;3.77;;
17714;SDS011;8977;50.902;4.314;2023-04-24T04:14:27;4.10;;;3.70;;
17714;SDS011;8977;50.902;4.314;2023-04-24T04:16:54;4.00;;;3.70;;
17714;SDS011;8977;50.902;4.314;2023-04-24T04:19:21;4.27;;;3.87;;
17714;SDS011;8977;50.902;4.314;2023-04-24T04:21:48;5.73;;;3.93;;
17714;SDS011;8977;50.902;4.314;2023-04-24T04:24:18;4.90;;;4.10;;
17714;SDS011;8977;50.902;4.314;2023-04-24T04:26:46;4.87;;;4.20;;
17714;SDS011;8977;50.902;4.314;2023-04-24T04:29:16;5.60;;;4.30;;
17714;SDS011;8977;50.902;4.314;2023-04-24T04:31:44;4.37;;;3.97;;
17714;SDS011;8977;50.902;4.314;2023-04-24T04:34:11;6.57;;;4.90;;
17714;SDS011;8977;50.902;4.314;2023-04-24T04:36:39;6.30;;;5.17;;
17714;SDS011;8977;50.902;4.314;2023-04-24T04:39:06;7.57;;;5.57;;
17714;SDS011;8977;50.902;4.314;2023-04-24T04:41:33;5.17;;;4.67;;
17714;SDS011;8977;50.902;4.314;2023-04-24T04:44:01;6.40;;;5.70;;
17714;SDS011;8977;50.902;4.314;2023-04-24T04:46:30;6.20;;;5.60;;
17714;SDS011;8977;50.902;4.314;2023-04-24T04:49:00;7.40;;;6.53;;
17714;SDS011;8977;50.902;4.314;2023-04-24T04:51:27;6.70;;;5.83;;
17714;SDS011;8977;50.902;4.314;2023-04-24T04:53:55;8.63;;;5.87;;
17714;SDS011;8977;50.902;4.314;2023-04-24T04:56:22;10.13;;;6.23;;
17714;SDS011;8977;50.902;4.314;2023-04-24T04:58:48;7.63;;;6.70;;
17714;SDS011;8977;50.902;4.314;2023-04-24T05:01:15;10.43;;;7.30;;
17714;SDS011;8977;50.902;4.314;2023-04-24T05:03:42;8.13;;;7.00;;
17714;SDS011;8977;50.902;4.314;2023-04-24T05:06:10;7.70;;;6.23;;
17714;SDS011;8977;50.902;4.314;2023-04-24T05:08:37;9.83;;;7.63;;
17714;SDS011;8977;50.902;4.314;2023-04-24T05:11:04;9.70;;;8.03;;
17714;SDS011;8977;50.902;4.314;2023-04-24T05:13:32;10.80;;;7.87;;
17714;SDS011;8977;50.902;4.314;2023-04-24T05:15:59;11.70;;;8.20;;
17714;SDS011;8977;50.902;4.314;2023-04-24T05:18:26;12.87;;;8.00;;
17714;SDS011;8977;50.902;4.314;2023-04-24T05:20:53;11.97;;;9.00;;
17714;SDS011;8977;50.902;4.314;2023-04-24T05:23:21;11.33;;;7.70;;
17714;SDS011;8977;50.902;4.314;2023-04-24T05:25:48;10.20;;;7.67;;
17714;SDS011;8977;50.902;4.314;2023-04-24T05:28:15;10.63;;;8.13;;
17714;SDS011;8977;50.902;4.314;2023-04-24T05:30:42;12.50;;;8.50;;
17714;SDS011;8977;50.902;4.314;2023-04-24T05:33:09;10.20;;;8.43;;
17714;SDS011;8977;50.902;4.314;2023-04-24T05:35:35;9.47;;;7.93;;
17714;SDS011;8977;50.902;4.314;2023-04-24T05:38:02;9.60;;;8.03;;
17714;SDS011;8977;50.902;4.314;2023-04-24T05:40:31;10.63;;;7.60;;
17714;SDS011;8977;50.902;4.314;2023-04-24T05:42:58;9.93;;;7.90;;
17714;SDS011;8977;50.902;4.314;2023-04-24T05:45:25;10.40;;;8.13;;
17714;SDS011;8977;50.902;4.314;2023-04-24T05:47:52;10.93;;;8.27;;
17714;SDS011;8977;50.902;4.314;2023-04-24T05:50:19;11.87;;;8.03;;
17714;SDS011;8977;50.902;4.314;2023-04-24T05:52:46;12.77;;;8.10;;
17714;SDS011;8977;50.902;4.314;2023-04-24T05:55:13;10.83;;;9.17;;
17714;SDS011;8977;50.902;4.314;2023-04-24T05:57:43;11.30;;;7.97;;
17714;SDS011;8977;50.902;4.314;2023-04-24T06:00:11;11.60;;;7.83;;
17714;SDS011;8977;50.902;4.314;2023-04-24T06:02:39;12.80;;;8.70;;
17714;SDS011;8977;50.902;4.314;2023-04-24T06:05:06;11.57;;;8.47;;
17714;SDS011;8977;50.902;4.314;2023-04-24T06:07:34;15.57;;;8.90;;
17714;SDS011;8977;50.902;4.314;2023-04-24T06:10:01;11.07;;;9.13;;
17714;SDS011;8977;50.902;4.314;2023-04-24T06:12:28;14.40;;;8.70;;
17714;SDS011;8977;50.902;4.314;2023-04-24T06:14:56;13.17;;;9.20;;
17714;SDS011;8977;50.902;4.314;2023-04-24T06:17:23;10.07;;;8.73;;
17714;SDS011;8977;50.902;4.314;2023-04-24T06:19:50;11.23;;;8.77;;
17714;SDS011;8977;50.902;4.314;2023-04-24T06:22:17;10.73;;;9.17;;
17714;SDS011;8977;50.902;4.314;2023-04-24T06:24:44;13.03;;;8.47;;
17714;SDS011;8977;50.902;4.314;2023-04-24T06:27:12;11.50;;;8.77;;
17714;SDS011;8977;50.902;4.314;2023-04-24T06:29:39;13.40;;;9.40;;
17714;SDS011;8977;50.902;4.314;2023-04-24T06:32:07;17.90;;;10.13;;
17714;SDS011;8977;50.902;4.314;2023-04-24T06:34:34;14.53;;;9.67;;
17714;SDS011;8977;50.902;4.314;2023-04-24T06:37:01;13.60;;;9.83;;
17714;SDS011;8977;50.902;4.314;2023-04-24T06:39:28;18.37;;;10.10;;
17714;SDS011;8977;50.902;4.314;2023-04-24T06:41:55;14.57;;;9.80;;
17714;SDS011;8977;50.902;4.314;2023-04-24T06:44:22;14.47;;;10.53;;
17714;SDS011;8977;50.902;4.314;2023-04-24T06:46:49;14.87;;;10.17;;
17714;SDS011;8977;50.902;4.314;2023-04-24T06:49:17;17.67;;;10.47;;
17714;SDS011;8977;50.902;4.314;2023-04-24T06:51:45;15.70;;;10.00;;
17714;SDS011;8977;50.902;4.314;2023-04-24T06:54:12;18.03;;;11.10;;
17714;SDS011;8977;50.902;4.314;2023-04-24T06:56:38;18.50;;;10.53;;
17714;SDS011;8977;50.902;4.314;2023-04-24T06:59:05;17.03;;;11.10;;
17714;SDS011;8977;50.902;4.314;2023-04-24T07:01:32;18.20;;;12.10;;
17714;SDS011;8977;50.902;4.314;2023-04-24T07:03:59;18.10;;;10.77;;
17714;SDS011;8977;50.902;4.314;2023-04-24T07:06:27;16.57;;;11.23;;
17714;SDS011;8977;50.902;4.314;2023-04-24T07:08:55;17.20;;;11.07;;
17714;SDS011;8977;50.902;4.314;2023-04-24T07:11:22;17.23;;;10.80;;
17714;SDS011;8977;50.902;4.314;2023-04-24T07:13:49;15.97;;;11.67;;
17714;SDS011;8977;50.902;4.314;2023-04-24T07:16:16;15.50;;;10.47;;
17714;SDS011;8977;50.902;4.314;2023-04-24T07:18:43;15.97;;;10.20;;
17714;SDS011;8977;50.902;4.314;2023-04-24T07:21:10;14.47;;;10.07;;
17714;SDS011;8977;50.902;4.314;2023-04-24T07:23:38;14.20;;;10.03;;
17714;SDS011;8977;50.902;4.314;2023-04-24T07:26:06;18.37;;;10.33;;
17714;SDS011;8977;50.902;4.314;2023-04-24T07:28:33;16.30;;;9.87;;
17714;SDS011;8977;50.902;4.314;2023-04-24T07:31:00;16.57;;;8.90;;
17714;SDS011;8977;50.902;4.314;2023-04-24T07:33:27;13.10;;;8.50;;
17714;SDS011;8977;50.902;4.314;2023-04-24T07:35:54;11.40;;;8.30;;
17714;SDS011;8977;50.902;4.314;2023-04-24T07:38:21;11.50;;;8.00;;
17714;SDS011;8977;50.902;4.314;2023-04-24T07:40:52;14.73;;;8.47;;
17714;SDS011;8977;50.902;4.314;2023-04-24T07:43:19;12.67;;;8.07;;
17714;SDS011;8977;50.902;4.314;2023-04-24T07:45:46;13.43;;;8.13;;
17714;SDS011;8977;50.902;4.314;2023-04-24T07:48:14;11.40;;;7.63;;
17714;SDS011;8977;50.902;4.314;2023-04-24T07:50:41;11.57;;;7.77;;
17714;SDS011;8977;50.902;4.314;2023-04-24T07:53:08;12.90;;;8.10;;
17714;SDS011;8977;50.902;4.314;2023-04-24T07:55:35;17.83;;;9.40;;
17714;SDS011;8977;50.902;4.314;2023-04-24T07:58:03;12.40;;;8.87;;
17714;SDS011;8977;50.902;4.314;2023-04-24T08:00:30;13.90;;;8.83;;
17714;SDS011;8977;50.902;4.314;2023-04-24T08:02:57;14.40;;;9.13;;
17714;SDS011;8977;50.902;4.314;2023-04-24T08:05:24;14.50;;;8.33;;
17714;SDS011;8977;50.902;4.314;2023-04-24T08:07:53;13.40;;;8.13;;
17714;SDS011;8977;50.902;4.314;2023-04-24T08:10:20;12.60;;;7.57;;
17714;SDS011;8977;50.902;4.314;2023-04-24T08:12:48;13.43;;;7.73;;
17714;SDS011;8977;50.902;4.314;2023-04-24T08:15:16;12.20;;;7.00;;
17714;SDS011;8977;50.902;4.314;2023-04-24T08:17:44;10.23;;;7.67;;
17714;SDS011;8977;50.902;4.314;2023-04-24T08:20:11;11.63;;;6.47;;
17714;SDS011;8977;50.902;4.314;2023-04-24T08:22:39;13.13;;;6.70;;
17714;SDS011;8977;50.902;4.314;2023-04-24T08:25:06;12.75;;;7.38;;
17714;SDS011;8977;50.902;4.314;2023-04-24T08:27:34;10.53;;;6.47;;
17714;SDS011;8977;50.902;4.314;2023-04-24T08:30:01;16.33;;;6.93;;
17714;SDS011;8977;50.902;4.314;2023-04-24T08:32:30;11.87;;;6.53;;
17714;SDS011;8977;50.902;4.314;2023-04-24T08:34:57;13.43;;;6.67;;
17714;SDS011;8977;50.902;4.314;2023-04-24T08:37:25;10.93;;;6.47;;
17714;SDS011;8977;50.902;4.314;2023-04-24T08:39:53;10.90;;;6.70;;
17714;SDS011;8977;50.902;4.314;2023-04-24T08:42:20;10.90;;;6.37;;
17714;SDS011;8977;50.902;4.314;2023-04-24T08:44:48;11.27;;;6.10;;
17714;SDS011;8977;50.902;4.314;2023-04-24T08:47:15;12.37;;;5.80;;
17714;SDS011;8977;50.902;4.314;2023-04-24T08:49:45;10.53;;;6.00;;
17714;SDS011;8977;50.902;4.314;2023-04-24T08:52:15;10.90;;;6.23;;
17714;SDS011;8977;50.902;4.314;2023-04-24T08:54:45;13.50;;;5.60;;
17714;SDS011;8977;50.902;4.314;2023-04-24T08:57:13;9.10;;;6.00;;
17714;SDS011;8977;50.902;4.314;2023-04-24T08:59:41;8.33;;;5.70;;
17714;SDS011;8977;50.902;4.314;2023-04-24T09:02:10;11.57;;;5.90;;
17714;SDS011;8977;50.902;4.314;2023-04-24T09:04:37;12.30;;;6.00;;
17714;SDS011;8977;50.902;4.314;2023-04-24T09:07:06;12.43;;;5.43;;
17714;SDS011;8977;50.902;4.314;2023-04-24T09:09:34;11.27;;;5.43;;
17714;SDS011;8977;50.902;4.314;2023-04-24T09:12:02;9.07;;;5.13;;
17714;SDS011;8977;50.902;4.314;2023-04-24T09:14:29;10.83;;;4.80;;
17714;SDS011;8977;50.902;4.314;2023-04-24T09:16:57;10.07;;;4.80;;
17714;SDS011;8977;50.902;4.314;2023-04-24T09:19:24;7.90;;;4.73;;
17714;SDS011;8977;50.902;4.314;2023-04-24T09:21:51;7.60;;;3.93;;
17714;SDS011;8977;50.902;4.314;2023-04-24T09:24:21;7.17;;;4.27;;
17714;SDS011;8977;50.902;4.314;2023-04-24T09:26:48;11.80;;;5.10;;
17714;SDS011;8977;50.902;4.314;2023-04-24T09:29:23;8.43;;;4.00;;
17714;SDS011;8977;50.902;4.314;2023-04-24T09:31:50;5.60;;;4.03;;
17714;SDS011;8977;50.902;4.314;2023-04-24T09:34:21;8.05;;;4.20;;
17714;SDS011;8977;50.902;4.314;2023-04-24T09:36:49;8.17;;;4.20;;
17714;SDS011;8977;50.902;4.314;2023-04-24T09:39:16;9.83;;;4.70;;
17714;SDS011;8977;50.902;4.314;2023-04-24T09:41:47;8.70;;;4.13;;
17714;SDS011;8977;50.902;4.314;2023-04-24T09:44:15;7.40;;;4.00;;
17714;SDS011;8977;50.902;4.314;2023-04-24T09:46:44;9.70;;;4.43;;
17714;SDS011;8977;50.902;4.314;2023-04-24T09:49:15;6.43;;;3.87;;
17714;SDS011;8977;50.902;4.314;2023-04-24T09:51:42;6.57;;;4.30;;
17714;SDS011;8977;50.902;4.314;2023-04-24T09:54:13;6.57;;;4.03;;
17714;SDS011;8977;50.902;4.314;2023-04-24T09:56:42;5.57;;;3.83;;
17714;SDS011;8977;50.902;4.314;2023-04-24T09:59:12;5.67;;;3.23;;
17714;SDS011;8977;50.902;4.314;2023-04-24T10:01:40;6.50;;;4.17;;
17714;SDS011;8977;50.902;4.314;2023-04-24T10:04:15;6.83;;;4.00;;
17714;SDS011;8977;50.902;4.314;2023-04-24T10:06:44;6.90;;;4.27;;
17714;SDS011;8977;50.902;4.314;2023-04-24T10:09:11;7.97;;;4.30;;
17714;SDS011;8977;50.902;4.314;2023-04-24T10:11:41;7.93;;;4.33;;
17714;SDS011;8977;50.902;4.314;2023-04-24T10:14:13;6.50;;;3.80;;
17714;SDS011;8977;50.902;4.314;2023-04-24T10:16:41;6.67;;;3.90;;
17714;SDS011;8977;50.902;4.314;2023-04-24T10:19:09;7.30;;;4.07;;
17714;SDS011;8977;50.902;4.314;2023-04-24T10:21:38;8.60;;;4.30;;
17714;SDS011;8977;50.902;4.314;2023-04-24T10:24:11;5.63;;;4.13;;
17714;SDS011;8977;50.902;4.314;2023-04-24T10:26:39;6.03;;;4.00;;
17714;SDS011;8977;50.902;4.314;2023-04-24T10:29:07;6.57;;;4.07;;
17714;SDS011;8977;50.902;4.314;2023-04-24T10:31:38;5.90;;;4.10;;
17714;SDS011;8977;50.902;4.314;2023-04-24T10:34:05;9.57;;;4.50;;
17714;SDS011;8977;50.902;4.314;2023-04-24T10:36:34;7.30;;;4.30;;
17714;SDS011;8977;50.902;4.314;2023-04-24T10:39:06;6.63;;;4.20;;
17714;SDS011;8977;50.902;4.314;2023-04-24T10:41:36;6.80;;;4.73;;
17714;SDS011;8977;50.902;4.314;2023-04-24T10:44:04;7.13;;;4.43;;
17714;SDS011;8977;50.902;4.314;2023-04-24T10:46:32;6.43;;;4.10;;
17714;SDS011;8977;50.902;4.314;2023-04-24T10:49:00;6.00;;;3.80;;
17714;SDS011;8977;50.902;4.314;2023-04-24T10:51:47;6.00;;;4.10;;
17714;SDS011;8977;50.902;4.314;2023-04-24T10:54:22;5.53;;;4.07;;
17714;SDS011;8977;50.902;4.314;2023-04-24T10:56:50;7.97;;;4.43;;
17714;SDS011;8977;50.902;4.314;2023-04-24T10:59:23;7.77;;;4.47;;
17714;SDS011;8977;50.902;4.314;2023-04-24T11:01:52;7.73;;;4.63;;
17714;SDS011;8977;50.902;4.314;2023-04-24T11:04:30;9.23;;;4.80;;
17714;SDS011;8977;50.902;4.314;2023-04-24T11:06:58;7.17;;;4.13;;
17714;SDS011;8977;50.902;4.314;2023-04-24T11:09:26;6.10;;;3.87;;
17714;SDS011;8977;50.902;4.314;2023-04-24T11:12:02;6.53;;;4.37;;
17714;SDS011;8977;50.902;4.314;2023-04-24T11:14:31;6.37;;;4.27;;
17714;SDS011;8977;50.902;4.314;2023-04-24T11:17:29;5.97;;;4.67;;
17714;SDS011;8977;50.902;4.314;2023-04-24T11:20:02;6.83;;;4.40;;
17714;SDS011;8977;50.902;4.314;2023-04-24T11:22:32;6.97;;;4.60;;
17714;SDS011;8977;50.902;4.314;2023-04-24T11:25:00;9.30;;;4.77;;
17714;SDS011;8977;50.902;4.314;2023-04-24T11:27:29;7.17;;;5.30;;
17714;SDS011;8977;50.902;4.314;2023-04-24T11:29:59;8.20;;;4.80;;
17714;SDS011;8977;50.902;4.314;2023-04-24T11:32:28;6.30;;;4.63;;
17714;SDS011;8977;50.902;4.314;2023-04-24T11:34:56;6.27;;;5.10;;
17714;SDS011;8977;50.902;4.314;2023-04-24T11:37:33;6.60;;;4.80;;
17714;SDS011;8977;50.902;4.314;2023-04-24T11:40:01;8.20;;;4.83;;
17714;SDS011;8977;50.902;4.314;2023-04-24T11:42:33;6.70;;;4.97;;
17714;SDS011;8977;50.902;4.314;2023-04-24T11:45:00;9.73;;;5.27;;
17714;SDS011;8977;50.902;4.314;2023-04-24T11:47:29;6.20;;;4.60;;
17714;SDS011;8977;50.902;4.314;2023-04-24T11:49:58;6.93;;;4.80;;
17714;SDS011;8977;50.902;4.314;2023-04-24T11:52:25;6.23;;;4.07;;
17714;SDS011;8977;50.902;4.314;2023-04-24T11:54:54;9.03;;;5.40;;
17714;SDS011;8977;50.902;4.314;2023-04-24T11:57:21;9.63;;;4.80;;
17714;SDS011;8977;50.902;4.314;2023-04-24T11:59:48;6.77;;;4.67;;
17714;SDS011;8977;50.902;4.314;2023-04-24T12:02:22;7.20;;;4.80;;
17714;SDS011;8977;50.902;4.314;2023-04-24T12:04:49;6.07;;;4.70;;
17714;SDS011;8977;50.902;4.314;2023-04-24T12:07:16;6.13;;;4.60;;
17714;SDS011;8977;50.902;4.314;2023-04-24T12:09:46;9.60;;;5.53;;
17714;SDS011;8977;50.902;4.314;2023-04-24T12:12:15;6.03;;;4.43;;
17714;SDS011;8977;50.902;4.314;2023-04-24T12:14:47;9.87;;;4.20;;
17714;SDS011;8977;50.902;4.314;2023-04-24T12:17:15;5.67;;;4.37;;
17714;SDS011;8977;50.902;4.314;2023-04-24T12:19:45;5.03;;;4.40;;
17714;SDS011;8977;50.902;4.314;2023-04-24T12:22:13;7.03;;;5.20;;
17714;SDS011;8977;50.902;4.314;2023-04-24T12:24:58;7.17;;;4.70;;
17714;SDS011;8977;50.902;4.314;2023-04-24T12:27:29;7.37;;;5.10;;
17714;SDS011;8977;50.902;4.314;2023-04-24T12:29:57;6.57;;;4.67;;
17714;SDS011;8977;50.902;4.314;2023-04-24T12:32:25;6.27;;;4.60;;
17714;SDS011;8977;50.902;4.314;2023-04-24T12:34:52;8.70;;;5.03;;
17714;SDS011;8977;50.902;4.314;2023-04-24T12:37:20;7.30;;;5.03;;
17714;SDS011;8977;50.902;4.314;2023-04-24T12:40:00;6.70;;;5.00;;
17714;SDS011;8977;50.902;4.314;2023-04-24T12:42:29;7.20;;;4.77;;
17714;SDS011;8977;50.902;4.314;2023-04-24T12:44:56;6.20;;;4.27;;
17714;SDS011;8977;50.902;4.314;2023-04-24T12:47:25;6.50;;;4.23;;
17714;SDS011;8977;50.902;4.314;2023-04-24T12:49:52;6.40;;;4.13;;
17714;SDS011;8977;50.902;4.314;2023-04-24T12:52:20;7.10;;;4.27;;
17714;SDS011;8977;50.902;4.314;2023-04-24T12:54:49;5.80;;;3.73;;
17714;SDS011;8977;50.902;4.314;2023-04-24T12:57:18;4.67;;;3.30;;
17714;SDS011;8977;50.902;4.314;2023-04-24T12:59:45;4.77;;;3.40;;
17714;SDS011;8977;50.902;4.314;2023-04-24T13:02:12;4.87;;;3.30;;
17714;SDS011;8977;50.902;4.314;2023-04-24T13:04:39;4.13;;;2.80;;
17714;SDS011;8977;50.902;4.314;2023-04-24T13:07:06;4.40;;;3.17;;
17714;SDS011;8977;50.902;4.314;2023-04-24T13:09:34;6.07;;;3.57;;
17714;SDS011;8977;50.902;4.314;2023-04-24T13:12:01;5.23;;;3.20;;
17714;SDS011;8977;50.902;4.314;2023-04-24T13:14:29;4.53;;;3.10;;
17714;SDS011;8977;50.902;4.314;2023-04-24T13:16:56;5.10;;;2.47;;
17714;SDS011;8977;50.902;4.314;2023-04-24T13:19:24;3.83;;;2.50;;
17714;SDS011;8977;50.902;4.314;2023-04-24T13:21:51;4.13;;;2.70;;
17714;SDS011;8977;50.902;4.314;2023-04-24T13:24:19;4.40;;;2.73;;
17714;SDS011;8977;50.902;4.314;2023-04-24T13:26:46;5.10;;;2.57;;
17714;SDS011;8977;50.902;4.314;2023-04-24T13:29:13;3.50;;;2.60;;
17714;SDS011;8977;50.902;4.314;2023-04-24T13:31:41;5.97;;;3.30;;
17714;SDS011;8977;50.902;4.314;2023-04-24T13:34:08;3.83;;;2.60;;
17714;SDS011;8977;50.902;4.314;2023-04-24T13:36:35;4.30;;;2.30;;
17714;SDS011;8977;50.902;4.314;2023-04-24T13:39:02;3.27;;;2.20;;
17714;SDS011;8977;50.902;4.314;2023-04-24T13:41:29;3.27;;;2.20;;
17714;SDS011;8977;50.902;4.314;2023-04-24T13:43:56;4.90;;;2.30;;
17714;SDS011;8977;50.902;4.314;2023-04-24T13:46:23;4.30;;;2.10;;
17714;SDS011;8977;50.902;4.314;2023-04-24T13:48:51;3.37;;;2.40;;
17714;SDS011;8977;50.902;4.314;2023-04-24T13:51:18;5.80;;;2.20;;
17714;SDS011;8977;50.902;4.314;2023-04-24T13:53:45;5.57;;;2.23;;
17714;SDS011;8977;50.902;4.314;2023-04-24T13:56:12;5.43;;;2.43;;
17714;SDS011;8977;50.902;4.314;2023-04-24T13:58:39;4.30;;;2.30;;
17714;SDS011;8977;50.902;4.314;2023-04-24T14:01:06;6.43;;;3.03;;
17714;SDS011;8977;50.902;4.314;2023-04-24T14:03:33;5.57;;;2.13;;
17714;SDS011;8977;50.902;4.314;2023-04-24T14:06:01;4.23;;;2.33;;
17714;SDS011;8977;50.902;4.314;2023-04-24T14:08:28;5.33;;;2.83;;
17714;SDS011;8977;50.902;4.314;2023-04-24T14:10:55;3.33;;;2.43;;
17714;SDS011;8977;50.902;4.314;2023-04-24T14:13:22;5.23;;;2.60;;
17714;SDS011;8977;50.902;4.314;2023-04-24T14:15:50;4.50;;;2.30;;
17714;SDS011;8977;50.902;4.314;2023-04-24T14:18:17;3.73;;;2.17;;
17714;SDS011;8977;50.902;4.314;2023-04-24T14:20:44;3.27;;;2.10;;
17714;SDS011;8977;50.902;4.314;2023-04-24T14:23:13;4.10;;;2.17;;
17714;SDS011;8977;50.902;4.314;2023-04-24T14:25:40;5.00;;;2.30;;
17714;SDS011;8977;50.902;4.314;2023-04-24T14:28:06;7.57;;;2.10;;
17714;SDS011;8977;50.902;4.314;2023-04-24T14:30:33;4.53;;;2.40;;
17714;SDS011;8977;50.902;4.314;2023-04-24T14:33:02;3.43;;;2.00;;
17714;SDS011;8977;50.902;4.314;2023-04-24T14:35:29;3.37;;;1.90;;
17714;SDS011;8977;50.902;4.314;2023-04-24T14:37:59;3.30;;;1.87;;
17714;SDS011;8977;50.902;4.314;2023-04-24T14:40:27;3.90;;;2.20;;
17714;SDS011;8977;50.902;4.314;2023-04-24T14:42:54;4.00;;;2.00;;
17714;SDS011;8977;50.902;4.314;2023-04-24T14:45:23;4.00;;;1.97;;
17714;SDS011;8977;50.902;4.314;2023-04-24T14:47:50;3.57;;;1.90;;
17714;SDS011;8977;50.902;4.314;2023-04-24T14:50:17;2.27;;;1.80;;
17714;SDS011;8977;50.902;4.314;2023-04-24T14:52:44;3.10;;;1.87;;
17714;SDS011;8977;50.902;4.314;2023-04-24T14:55:12;3.30;;;1.90;;
17714;SDS011;8977;50.902;4.314;2023-04-24T14:57:41;3.30;;;1.93;;